Aylmer, Canada
Current Conditions -  °F | °C
As of 6:00 PM on Tuesday 25 Nov 2014 (Local Time) from CYOW Reporting Station
Overcast Overcast  
Wind Chill: 28°   Ceiling: 3500
Heat Index: 37°   Visibility: 15mi
Dew Point: 27°   Wind: 16mph
Humidity: 65%   Direction: 230°SW
Pressure: 29.91"   Gusts: 29mph
Location:  45.4°N, 75.85°W
Report Text: CYOW 252300Z 23014G25KT 15SM OVC035 03/M03 A2991 RMK SC8 SLP133
Loading
Personal Weather Stations






























Interactive Weather Map New forecast layout! Learn more

10-Day Weather Forecast

Advertisements
Track Severe Weather on mobile